Список аэропортов
Фактическая погода:

25 июня, 11:00
Температура: +12°C (+10.9*)
Ветер: северный 3 м/с
Давление: *754 мм
неб. 990 м
неб. 2970 м
Время (МСК)Темп. СВетерВлажностьДавлениеОблачностьОсадки
09:00+14С, 1 м/с57%1005 гПамалооблачно
10:00+15СЗ, 1 м/с50%1005 гПамалооблачно
11:00+17СЗ, 1 м/с42%1005 гПаясно
12:00+18СЗ, 2 м/с39%1005 гПамалооблачно
13:00+18СЗ, 1 м/с37%1005 гПамалооблачно
14:00+19СЗ, 1 м/с37%1004 гПамалооблачно
15:00+19СЗ, 1 м/с37%1004 гПамалооблачно
16:00+19Штиль 38%1004 гПамалооблачно
17:00+19Штиль 39%1004 гПаясно
18:00+18СВ, 1 м/с42%1004 гПаясно
19:00+17СВ, 1 м/с46%1004 гПаясно
20:00+15СВ, 1 м/с63%1004 гПаясно
21:00+13СВ, 1 м/с78%1004 гПамалооблачно
22:00+11В, 1 м/с88%1005 гПаоблачно
23:00+11В, 1 м/с85%1004 гПаоблачно
26 июня
00:00+11В, 1 м/с77%1004 гПаоблачно
01:00+11В, 2 м/с70%1004 гПас прояснениями
02:00+11ЮВ, 1 м/с73%1004 гПаоблачно
03:00+10ЮВ, 1 м/с81%1004 гПаоблачно
04:00+10ЮВ, 1 м/с96%1004 гПаоблачносл. дождь
05:00+10ЮВ, 1 м/с97%1004 гПаоблачносл. дождь
06:00+10ЮВ, 1 м/с97%1004 гПаоблачносл. дождь
07:00+11ЮВ, 1 м/с96%1003 гПаоблачно
08:00+12ЮВ, 1 м/с95%1003 гПаоблачно
09:00+13ЮВ, 2 м/с89%1003 гПаоблачно
10:00+16ЮВ, 3 м/с72%1002 гПаоблачно
11:00+14ЮВ, 2 м/с88%1002 гПаоблачнодождь
12:00+14Ю, 2 м/с88%1002 гПаоблачнодождь
13:00+15Ю, 2 м/с92%1002 гПаоблачносл. дождь
14:00+15Ю, 2 м/с88%1002 гПаоблачно
15:00+16Ю, 2 м/с82%1002 гПаоблачно
16:00+18Ю, 2 м/с70%1001 гПамалооблачно
17:00+19Ю, 2 м/с64%1001 гПас прояснениями
18:00+20Ю, 2 м/с61%1001 гПас прояснениями
19:00+18Ю, 2 м/с76%1000 гПаоблачнодождь
20:00+16Ю, 2 м/с96%1000 гПаоблачнодождь
21:00+15Ю, 2 м/с98%1000 гПаоблачнодождь
22:00+15Ю, 2 м/с99%1000 гПаоблачно
23:00+14Ю, 2 м/с99%999 гПаоблачно
27 июня
00:00+14Ю, 2 м/с99%998 гПаоблачно
01:00+14Ю, 2 м/с99%997 гПаоблачно
02:00+14ЮВ, 2 м/с99%997 гПаоблачно
03:00+14ЮВ, 2 м/с99%996 гПаоблачнодождь
04:00+14ЮВ, 2 м/с98%995 гПаоблачнодождь
05:00+14В, 2 м/с98%993 гПаоблачнодождь
06:00+14ЮВ, 2 м/с97%991 гПаоблачнодождь
07:00+14ЮВ, 3 м/с97%989 гПаоблачнодождь
08:00+14Ю, 4 м/с97%988 гПаоблачнодождь
09:00+15З, 6 м/с91%989 гПамалооблачнодождь